createdAt,value
2022-10-05T00:01:53.525Z,18.70
2022-10-05T00:04:29.329Z,18.00
2022-10-05T00:07:10.768Z,18.00
2022-10-05T00:09:43.549Z,17.90
2022-10-05T00:12:21.128Z,18.40
2022-10-05T00:14:56.878Z,18.50
2022-10-05T00:17:30.771Z,18.00
2022-10-05T00:20:03.256Z,18.20
2022-10-05T00:22:38.168Z,17.80
2022-10-05T00:25:16.913Z,18.80
2022-10-05T00:27:52.784Z,18.70
2022-10-05T00:30:28.459Z,20.00
2022-10-05T00:35:32.118Z,17.80
2022-10-05T00:38:04.456Z,19.30
2022-10-05T00:40:57.071Z,19.00
2022-10-05T00:43:48.039Z,21.00
2022-10-05T00:46:25.576Z,19.10
2022-10-05T00:49:08.107Z,19.40
2022-10-05T00:51:43.156Z,18.20
2022-10-05T00:54:27.506Z,20.80
2022-10-05T00:57:09.926Z,20.50
2022-10-05T00:59:59.328Z,19.70
2022-10-05T01:02:41.828Z,21.70
2022-10-05T01:05:21.556Z,21.80
2022-10-05T01:08:00.544Z,22.20
2022-10-05T01:10:41.396Z,21.70
2022-10-05T01:13:25.789Z,19.80
2022-10-05T01:16:09.869Z,20.70
2022-10-05T01:18:49.748Z,21.50
2022-10-05T01:21:25.218Z,22.00
2022-10-05T01:24:34.661Z,22.50
2022-10-05T01:27:36.118Z,21.50
2022-10-05T01:30:13.715Z,20.90
2022-10-05T01:32:51.417Z,21.20
2022-10-05T01:35:49.753Z,21.50
2022-10-05T01:38:36.258Z,20.80
2022-10-05T01:41:22.576Z,20.00
2022-10-05T01:44:01.366Z,20.80
2022-10-05T01:46:40.039Z,20.50
2022-10-05T01:49:33.577Z,21.20
2022-10-05T01:52:20.690Z,19.00
2022-10-05T01:55:08.429Z,18.40
2022-10-05T01:57:52.098Z,18.80
2022-10-05T02:00:24.423Z,18.90
2022-10-05T02:03:05.737Z,19.50
2022-10-05T02:05:46.397Z,20.10
2022-10-05T02:08:23.918Z,17.70
2022-10-05T02:11:01.300Z,18.10
2022-10-05T02:13:40.625Z,18.60
2022-10-05T02:16:23.498Z,16.80
2022-10-05T02:18:59.927Z,17.30
2022-10-05T02:21:36.177Z,17.70
2022-10-05T02:24:14.818Z,17.00
2022-10-05T02:26:49.177Z,17.70
2022-10-05T02:29:27.861Z,18.40
2022-10-05T02:32:04.748Z,17.80
2022-10-05T02:34:40.865Z,17.10
2022-10-05T02:37:32.426Z,17.20
2022-10-05T02:40:16.122Z,18.20
2022-10-05T02:42:56.478Z,18.10
2022-10-05T02:45:42.335Z,15.40
2022-10-05T02:48:26.018Z,16.50
2022-10-05T02:51:06.388Z,16.80
2022-10-05T02:53:49.215Z,17.80
2022-10-05T02:56:31.355Z,16.50
2022-10-05T02:59:12.478Z,15.90
2022-10-05T03:01:52.540Z,16.60
2022-10-05T03:04:36.956Z,16.50
2022-10-05T03:07:18.159Z,16.10
2022-10-05T03:10:01.092Z,16.90
2022-10-05T03:12:47.749Z,16.30
2022-10-05T03:15:36.714Z,15.90
2022-10-05T03:18:21.402Z,16.30
2022-10-05T03:21:04.897Z,15.30
2022-10-05T03:23:51.338Z,15.70
2022-10-05T03:26:42.369Z,14.20
2022-10-05T03:29:28.365Z,14.10
2022-10-05T03:32:09.636Z,14.00
2022-10-05T03:34:48.047Z,14.30
2022-10-05T03:37:29.686Z,14.80
2022-10-05T03:40:10.356Z,13.60
2022-10-05T03:43:01.999Z,14.30
2022-10-05T03:45:43.768Z,15.10
2022-10-05T03:48:21.348Z,14.20
2022-10-05T03:51:03.998Z,13.20
2022-10-05T03:53:43.988Z,12.70
2022-10-05T03:56:24.091Z,13.10
2022-10-05T03:59:02.337Z,14.00
2022-10-05T04:01:41.186Z,12.80
2022-10-05T04:04:25.762Z,12.30
2022-10-05T04:07:02.486Z,12.10
2022-10-05T04:09:38.376Z,11.40
2022-10-05T04:12:18.846Z,11.40
2022-10-05T04:14:55.641Z,12.20
2022-10-05T04:17:38.088Z,12.70
2022-10-05T04:20:21.216Z,11.60
2022-10-05T04:23:00.365Z,11.40
2022-10-05T04:25:37.708Z,10.90
2022-10-05T04:28:17.793Z,10.20
2022-10-05T04:30:54.039Z,10.40
2022-10-05T04:33:28.868Z,11.00
2022-10-05T04:36:23.344Z,11.40
2022-10-05T04:39:12.639Z,11.00
2022-10-05T04:41:57.936Z,9.90
2022-10-05T04:44:58.425Z,9.70
2022-10-05T04:47:50.026Z,9.60
2022-10-05T04:50:32.900Z,10.20
2022-10-05T04:53:24.837Z,9.80
2022-10-05T04:56:24.416Z,9.90
2022-10-05T04:59:30.237Z,9.20
2022-10-05T05:02:13.638Z,9.10
2022-10-05T05:07:40.498Z,8.40
2022-10-05T05:10:43.006Z,8.50
2022-10-05T05:13:34.916Z,9.40
2022-10-05T05:16:13.834Z,9.50
2022-10-05T05:19:17.188Z,9.70
2022-10-05T05:21:59.858Z,10.20
2022-10-05T05:24:42.498Z,9.40
2022-10-05T05:27:42.291Z,9.80
2022-10-05T05:30:23.651Z,9.60
2022-10-05T05:33:14.081Z,10.30
2022-10-05T05:36:25.924Z,10.80
2022-10-05T05:39:17.375Z,9.10
2022-10-05T05:41:59.578Z,9.00
2022-10-05T05:44:38.828Z,8.30
2022-10-05T05:47:22.011Z,9.00
2022-10-05T05:50:19.296Z,8.30
2022-10-05T05:52:55.866Z,9.00
2022-10-05T05:55:32.978Z,9.30
2022-10-05T05:58:16.838Z,9.00
2022-10-05T06:00:57.718Z,10.80
2022-10-05T06:03:37.517Z,9.00
2022-10-05T06:06:15.683Z,11.20
2022-10-05T06:08:56.446Z,10.50
2022-10-05T06:12:06.150Z,10.50
2022-10-05T06:14:43.789Z,10.20
2022-10-05T06:17:20.994Z,9.30
2022-10-05T06:20:04.700Z,9.70
2022-10-05T06:22:43.183Z,9.70
2022-10-05T06:25:30.498Z,9.40
2022-10-05T06:28:09.499Z,9.90
2022-10-05T06:30:53.479Z,8.40
2022-10-05T06:33:43.867Z,8.50
2022-10-05T06:36:41.095Z,8.20
2022-10-05T06:39:38.350Z,7.00
2022-10-05T06:42:34.991Z,6.60
2022-10-05T06:45:31.082Z,6.80
2022-10-05T06:48:19.098Z,6.00
2022-10-05T06:51:23.677Z,6.70
2022-10-05T06:54:30.208Z,6.20
2022-10-05T06:57:09.727Z,5.60
2022-10-05T06:59:50.938Z,6.30
2022-10-05T07:02:28.881Z,6.10
2022-10-05T07:05:33.080Z,5.80
2022-10-05T07:08:12.099Z,5.80
2022-10-05T07:10:58.287Z,5.30
2022-10-05T07:13:53.237Z,6.30
2022-10-05T07:16:37.020Z,5.80
2022-10-05T07:19:29.987Z,5.60
2022-10-05T07:22:28.282Z,4.90
2022-10-05T07:25:08.716Z,5.40
2022-10-05T07:27:51.096Z,4.80
2022-10-05T07:30:25.291Z,5.10
2022-10-05T07:33:10.409Z,4.90
2022-10-05T07:36:09.696Z,5.30
2022-10-05T07:38:48.267Z,5.20
2022-10-05T07:41:26.155Z,4.30
2022-10-05T07:44:12.837Z,4.40
2022-10-05T07:46:55.967Z,4.60
2022-10-05T07:49:42.102Z,4.20
2022-10-05T07:52:32.414Z,4.80
2022-10-05T07:55:17.433Z,4.60
2022-10-05T07:58:04.485Z,4.90
2022-10-05T08:00:58.667Z,4.90
2022-10-05T08:03:46.278Z,5.20
2022-10-05T08:06:36.119Z,5.50
2022-10-05T08:09:29.179Z,4.70
2022-10-05T08:12:13.837Z,4.90
2022-10-05T08:14:53.287Z,4.80
2022-10-05T08:17:35.597Z,4.60
2022-10-05T08:20:21.416Z,4.90
2022-10-05T08:22:59.099Z,4.10
2022-10-05T08:25:42.619Z,5.20
2022-10-05T08:28:22.511Z,4.80
2022-10-05T08:31:02.608Z,5.20
2022-10-05T08:33:45.236Z,4.20
2022-10-05T08:36:23.429Z,4.40
2022-10-05T08:39:01.757Z,4.50
2022-10-05T08:42:07.259Z,4.40
2022-10-05T08:45:12.336Z,4.10
2022-10-05T08:48:07.359Z,5.20
2022-10-05T08:51:19.418Z,4.30
2022-10-05T08:54:39.307Z,4.00
2022-10-05T08:57:40.879Z,4.50
2022-10-05T09:00:18.759Z,4.10
2022-10-05T09:03:14.078Z,3.90
2022-10-05T09:06:12.176Z,4.40
2022-10-05T09:09:08.719Z,5.00
2022-10-05T09:11:45.785Z,3.80
2022-10-05T09:14:56.629Z,4.50
2022-10-05T09:18:07.504Z,3.70
2022-10-05T09:20:51.061Z,4.00
2022-10-05T09:23:38.760Z,4.10
2022-10-05T09:26:45.058Z,4.40
2022-10-05T09:29:48.665Z,3.50
2022-10-05T09:32:46.558Z,3.40
2022-10-05T09:35:32.502Z,4.00
2022-10-05T09:38:15.377Z,4.60
2022-10-05T09:44:47.298Z,3.90
2022-10-05T09:47:38.528Z,4.10
2022-10-05T09:50:49.762Z,3.80
2022-10-05T09:53:50.066Z,3.80
2022-10-05T09:57:09.339Z,4.50
2022-10-05T10:00:12.719Z,4.30
2022-10-05T10:03:11.255Z,4.30
2022-10-05T10:06:03.036Z,3.60
2022-10-05T10:08:45.047Z,3.30
2022-10-05T10:11:27.898Z,4.90
2022-10-05T10:14:14.436Z,3.50
2022-10-05T10:17:02.228Z,4.10
2022-10-05T10:20:15.026Z,3.50
2022-10-05T10:23:10.187Z,4.00
2022-10-05T10:26:01.036Z,4.10
2022-10-05T10:28:53.876Z,4.20
2022-10-05T10:31:46.759Z,4.70
2022-10-05T10:34:52.907Z,3.90
2022-10-05T10:37:40.913Z,4.00
2022-10-05T10:40:36.771Z,4.80
2022-10-05T10:43:34.228Z,4.40
2022-10-05T10:46:22.274Z,4.20
2022-10-05T10:49:03.902Z,3.90
2022-10-05T10:52:07.082Z,4.20
2022-10-05T10:55:11.708Z,3.50
2022-10-05T10:58:01.276Z,3.70
2022-10-05T11:00:46.251Z,3.50
2022-10-05T11:03:49.499Z,3.40
2022-10-05T11:06:37.355Z,3.60
2022-10-05T11:09:30.647Z,3.60
2022-10-05T11:12:34.724Z,3.20
2022-10-05T11:15:24.685Z,3.20
2022-10-05T11:18:12.706Z,4.00
2022-10-05T11:21:11.723Z,4.30
2022-10-05T11:24:20.006Z,4.00
2022-10-05T11:27:11.735Z,3.90
2022-10-05T11:30:07.523Z,3.90
2022-10-05T11:33:17.888Z,3.90
2022-10-05T11:36:24.636Z,4.30
2022-10-05T11:39:39.077Z,4.10
2022-10-05T11:42:35.968Z,3.50
2022-10-05T11:45:23.927Z,3.90
2022-10-05T11:48:26.840Z,3.80
2022-10-05T11:51:29.040Z,4.30
2022-10-05T11:54:24.149Z,4.20
2022-10-05T11:57:02.116Z,4.70
2022-10-05T11:59:41.136Z,4.50
2022-10-05T12:02:43.077Z,5.00
2022-10-05T12:05:23.828Z,4.40
2022-10-05T12:08:13.553Z,4.20
2022-10-05T12:10:59.203Z,4.20
2022-10-05T12:13:40.948Z,4.40
2022-10-05T12:16:19.063Z,4.40
2022-10-05T12:18:56.939Z,4.10
2022-10-05T12:21:38.696Z,4.50
2022-10-05T12:24:23.385Z,5.20
2022-10-05T12:27:08.298Z,4.70
2022-10-05T12:29:45.808Z,4.90
2022-10-05T12:32:22.715Z,4.90
2022-10-05T12:35:02.283Z,4.70
2022-10-05T12:37:49.198Z,5.00
2022-10-05T12:40:28.346Z,5.20
2022-10-05T12:43:13.208Z,4.70
2022-10-05T12:46:00.587Z,4.70
2022-10-05T12:48:52.990Z,5.00
2022-10-05T12:51:38.154Z,5.30
2022-10-05T12:54:23.267Z,5.60
2022-10-05T12:57:01.425Z,4.80
2022-10-05T12:59:41.557Z,4.90
2022-10-05T13:02:26.180Z,4.30
2022-10-05T13:05:05.366Z,5.00
2022-10-05T13:07:50.506Z,4.60
2022-10-05T13:10:38.149Z,4.80
2022-10-05T13:13:35.777Z,5.30
2022-10-05T13:16:17.999Z,4.90
2022-10-05T13:19:07.667Z,5.30
2022-10-05T13:21:58.876Z,4.70
2022-10-05T13:24:36.468Z,5.40
2022-10-05T13:27:19.577Z,4.10
2022-10-05T13:29:59.347Z,4.30
2022-10-05T13:32:37.437Z,4.10
2022-10-05T13:35:29.770Z,4.10
2022-10-05T13:38:18.606Z,4.10
2022-10-05T13:40:59.898Z,4.00
2022-10-05T13:43:44.292Z,3.70
2022-10-05T13:46:24.205Z,4.00
2022-10-05T13:49:06.560Z,3.80
2022-10-05T13:51:47.517Z,4.20
2022-10-05T13:54:25.336Z,4.30
2022-10-05T13:57:04.832Z,4.10
2022-10-05T13:59:45.989Z,5.00
2022-10-05T14:02:22.582Z,3.80
2022-10-05T14:05:02.470Z,4.30
2022-10-05T14:07:41.069Z,3.40
2022-10-05T14:10:31.728Z,3.80
2022-10-05T14:13:10.977Z,4.00
2022-10-05T14:15:43.387Z,4.10
2022-10-05T14:18:27.663Z,4.70
2022-10-05T14:21:07.456Z,4.10
2022-10-05T14:23:40.070Z,3.90
2022-10-05T14:26:33.019Z,4.40
2022-10-05T14:29:18.346Z,4.10
2022-10-05T14:31:59.615Z,4.70
2022-10-05T14:34:37.556Z,4.20
2022-10-05T14:37:23.308Z,3.90
2022-10-05T14:39:59.206Z,4.30
2022-10-05T14:42:46.981Z,4.40
2022-10-05T14:45:23.150Z,4.40
2022-10-05T14:48:03.978Z,4.30
2022-10-05T14:50:50.520Z,4.20
2022-10-05T14:53:25.318Z,3.80
2022-10-05T14:56:18.996Z,4.60
2022-10-05T14:59:07.907Z,4.00
2022-10-05T15:01:47.148Z,4.20
2022-10-05T15:04:34.268Z,4.80
2022-10-05T15:07:21.978Z,4.40
2022-10-05T15:10:04.717Z,5.70
2022-10-05T15:12:46.997Z,6.10
2022-10-05T15:15:35.521Z,5.10
2022-10-05T15:18:16.974Z,4.90
2022-10-05T15:20:58.495Z,5.00
2022-10-05T15:23:38.276Z,5.10
2022-10-05T15:26:25.797Z,4.60
2022-10-05T15:29:08.786Z,4.40
2022-10-05T15:31:49.587Z,4.60
2022-10-05T15:34:29.868Z,4.40
2022-10-05T15:37:10.181Z,4.30
2022-10-05T15:39:50.442Z,4.30
2022-10-05T15:42:24.562Z,4.10
2022-10-05T15:45:09.121Z,3.60
2022-10-05T15:47:54.016Z,3.60
2022-10-05T15:50:30.123Z,3.30
2022-10-05T15:53:18.916Z,3.70
2022-10-05T15:55:57.789Z,3.70
2022-10-05T15:58:52.669Z,3.60
2022-10-05T16:01:41.748Z,4.20
2022-10-05T16:04:21.865Z,3.40
2022-10-05T16:07:17.180Z,3.30
2022-10-05T16:09:59.966Z,4.00
2022-10-05T16:12:52.387Z,3.50
2022-10-05T16:15:33.916Z,4.10
2022-10-05T16:18:46.329Z,3.60
2022-10-05T16:21:29.526Z,4.30
2022-10-05T16:24:15.990Z,4.30
2022-10-05T16:27:00.170Z,3.90
2022-10-05T16:29:40.531Z,4.30
2022-10-05T16:32:19.098Z,3.90
2022-10-05T16:35:04.145Z,5.60
2022-10-05T16:37:45.708Z,4.60
2022-10-05T16:40:29.416Z,6.80
2022-10-05T16:43:15.618Z,5.30
2022-10-05T16:46:02.408Z,4.50
2022-10-05T16:48:42.616Z,4.00
2022-10-05T16:51:28.516Z,4.30
2022-10-05T16:54:18.648Z,4.40
2022-10-05T16:56:56.408Z,3.80
2022-10-05T17:00:15.530Z,5.00
2022-10-05T17:03:03.386Z,4.50
2022-10-05T17:05:55.902Z,4.10
2022-10-05T17:08:45.869Z,4.40
2022-10-05T17:11:28.926Z,6.70
2022-10-05T17:14:32.526Z,6.70
2022-10-05T17:17:25.876Z,9.20
2022-10-05T17:20:24.038Z,5.00
2022-10-05T17:22:59.988Z,4.90
2022-10-05T17:25:47.860Z,4.50
2022-10-05T17:28:37.703Z,4.20
2022-10-05T17:31:27.360Z,33.20
2022-10-05T17:34:27.897Z,6.80
2022-10-05T17:37:16.912Z,5.80
2022-10-05T17:39:55.676Z,5.10
2022-10-05T17:42:49.418Z,4.50
2022-10-05T17:45:58.397Z,4.60
2022-10-05T17:49:07.596Z,7.40
2022-10-05T17:52:22.259Z,6.80
2022-10-05T17:55:32.107Z,7.80
2022-10-05T17:58:40.513Z,6.40
2022-10-05T18:01:32.001Z,5.10
2022-10-05T18:04:35.734Z,4.60
2022-10-05T18:07:21.398Z,4.30
2022-10-05T18:10:29.388Z,5.00
2022-10-05T18:13:36.150Z,5.40
2022-10-05T18:16:12.853Z,5.10
2022-10-05T18:19:05.979Z,6.00
2022-10-05T18:22:01.038Z,5.40
2022-10-05T18:24:56.982Z,5.00
2022-10-05T18:28:06.456Z,5.60
2022-10-05T18:30:59.357Z,6.00
2022-10-05T18:34:23.686Z,5.80
2022-10-05T18:37:12.008Z,6.60
2022-10-05T18:40:10.268Z,6.40
2022-10-05T18:42:56.984Z,5.70
2022-10-05T18:45:37.888Z,5.90
2022-10-05T18:48:25.975Z,5.80
2022-10-05T18:51:05.046Z,5.40
2022-10-05T18:53:43.338Z,5.70
2022-10-05T18:56:26.336Z,6.30
2022-10-05T18:59:11.470Z,6.30
2022-10-05T19:01:58.360Z,5.80
2022-10-05T19:04:40.516Z,5.70
2022-10-05T19:07:26.037Z,5.80
2022-10-05T19:10:17.946Z,5.00
2022-10-05T19:13:25.285Z,5.20
2022-10-05T19:16:12.328Z,5.60
2022-10-05T19:19:12.997Z,5.70
2022-10-05T19:21:51.499Z,5.50
2022-10-05T19:24:42.129Z,5.90
2022-10-05T19:27:27.178Z,5.50
2022-10-05T19:30:23.881Z,5.50
2022-10-05T19:33:13.287Z,5.60
2022-10-05T19:35:58.799Z,6.00
2022-10-05T19:38:38.614Z,6.20
2022-10-05T19:41:19.656Z,6.30
2022-10-05T19:44:15.396Z,6.10
2022-10-05T19:47:04.546Z,6.10
2022-10-05T19:49:50.338Z,5.90
2022-10-05T19:52:28.830Z,6.20
2022-10-05T19:55:16.600Z,6.50
2022-10-05T19:57:54.187Z,6.20
2022-10-05T20:00:31.781Z,6.20
2022-10-05T20:03:20.081Z,5.60
2022-10-05T20:05:55.278Z,6.20
2022-10-05T20:08:32.221Z,5.90
2022-10-05T20:11:14.378Z,6.70
2022-10-05T20:13:48.308Z,6.30
2022-10-05T20:16:47.690Z,6.10
2022-10-05T20:19:58.125Z,6.10
2022-10-05T20:22:34.584Z,6.00
2022-10-05T20:25:15.017Z,6.10
2022-10-05T20:27:50.063Z,6.50
2022-10-05T20:30:24.704Z,6.00
2022-10-05T20:33:01.689Z,7.10
2022-10-05T20:35:33.869Z,6.70
2022-10-05T20:38:06.339Z,7.30
2022-10-05T20:40:40.438Z,7.40
2022-10-05T20:43:12.627Z,6.80
2022-10-05T20:45:44.808Z,7.80
2022-10-05T20:48:17.747Z,7.00
2022-10-05T20:50:50.137Z,7.70
2022-10-05T20:53:22.336Z,7.30
2022-10-05T20:55:54.648Z,7.50
2022-10-05T20:58:27.303Z,7.50
2022-10-05T21:01:20.468Z,8.00
2022-10-05T21:03:53.100Z,7.60
2022-10-05T21:06:28.698Z,8.00
2022-10-05T21:09:01.760Z,8.00
2022-10-05T21:11:34.472Z,7.90
2022-10-05T21:14:08.443Z,8.00
2022-10-05T21:16:43.767Z,8.30
2022-10-05T21:19:17.352Z,8.00
2022-10-05T21:24:22.588Z,7.90
2022-10-05T21:26:57.939Z,8.00
2022-10-05T21:29:33.369Z,8.20
2022-10-05T21:32:08.872Z,7.90
2022-10-05T21:34:41.584Z,9.00
2022-10-05T21:37:15.887Z,7.60
2022-10-05T21:39:48.312Z,18.30
2022-10-05T21:42:20.715Z,13.40
2022-10-05T21:44:52.791Z,9.10
2022-10-05T21:47:25.010Z,10.00
2022-10-05T21:49:58.513Z,9.20
2022-10-05T21:52:31.483Z,10.40
2022-10-05T21:55:23.771Z,9.00
2022-10-05T21:57:56.653Z,8.50
2022-10-05T22:00:30.628Z,7.90
2022-10-05T22:03:02.911Z,7.70
2022-10-05T22:05:35.395Z,8.50
2022-10-05T22:08:08.376Z,8.60
2022-10-05T22:10:41.001Z,8.80
2022-10-05T22:13:13.376Z,9.70
2022-10-05T22:15:45.714Z,10.50
2022-10-05T22:18:19.737Z,9.00
2022-10-05T22:20:53.483Z,10.20
2022-10-05T22:23:28.549Z,9.40
2022-10-05T22:26:02.455Z,10.00
2022-10-05T22:28:35.693Z,9.70
2022-10-05T22:31:12.132Z,10.70
2022-10-05T22:33:44.541Z,9.70
2022-10-05T22:36:18.003Z,9.20
2022-10-05T22:38:50.352Z,9.10
2022-10-05T22:41:22.892Z,9.20
2022-10-05T22:43:57.111Z,8.70
2022-10-05T22:46:29.531Z,9.80
2022-10-05T22:49:02.513Z,9.60
2022-10-05T22:51:34.802Z,9.70
2022-10-05T22:54:10.002Z,9.50
2022-10-05T22:56:42.322Z,9.90
2022-10-05T22:59:14.523Z,9.10
2022-10-05T23:01:47.061Z,9.10
2022-10-05T23:04:19.368Z,9.30
2022-10-05T23:06:51.833Z,10.00
2022-10-05T23:09:24.954Z,11.10
2022-10-05T23:11:57.522Z,11.50
2022-10-05T23:14:31.112Z,10.40
2022-10-05T23:19:34.321Z,10.40
2022-10-05T23:22:07.434Z,10.70
2022-10-05T23:24:42.801Z,11.40
2022-10-05T23:27:15.101Z,11.30
2022-10-05T23:29:48.203Z,11.00
2022-10-05T23:32:20.534Z,11.30
2022-10-05T23:34:52.713Z,11.20
2022-10-05T23:37:27.052Z,11.20
2022-10-05T23:39:59.893Z,11.30
2022-10-05T23:42:32.013Z,10.60
2022-10-05T23:45:04.244Z,11.20
2022-10-05T23:47:37.382Z,12.30
2022-10-05T23:50:11.481Z,11.80
2022-10-05T23:52:43.874Z,10.30
2022-10-05T23:55:16.251Z,11.20
2022-10-05T23:57:48.332Z,11.60
